Time;durP1;ratioP1;P1;durP2;ratioP2;P2;SDS_P1;SDS_P2;PMS_P1;PMS_P2;Temp;Humidity;BMP_temperature;BMP_pressure;BME280_temperature;BME280_humidity;BME280_pressure;Samples;Min_cycle;Max_cycle;Signal;HPM_P1;HPM_P2
2024/04/18 00:00:04;;;;;;;17.70;16.20;;;;;;;;;;5368882;26;20232;-82
2024/04/18 00:02:30;;;;;;;18.67;16.95;;;;;;;;;;5378326;26;20859;-82
2024/04/18 00:04:56;;;;;;;17.00;15.40;;;;;;;;;;5371791;26;20275;-82
2024/04/18 00:07:22;;;;;;;18.42;16.83;;;;;;;;;;5370477;26;20240;-82
2024/04/18 00:09:48;;;;;;;18.97;17.07;;;;;;;;;;5376666;26;20236;-83
2024/04/18 00:12:14;;;;;;;18.83;17.23;;;;;;;;;;5369280;26;20581;-82
2024/04/18 00:14:40;;;;;;;17.53;16.03;;;;;;;;;;5373736;26;20458;-82
2024/04/18 00:17:06;;;;;;;19.00;17.23;;;;;;;;;;5365489;26;21024;-82
2024/04/18 00:19:32;;;;;;;19.07;17.17;;;;;;;;;;5377968;26;20566;-82
2024/04/18 00:21:58;;;;;;;19.63;17.80;;;;;;;;;;5379988;26;20462;-82
2024/04/18 00:24:24;;;;;;;18.45;16.52;;;;;;;;;;5372753;26;20542;-82
2024/04/18 00:26:50;;;;;;;18.67;16.97;;;;;;;;;;5368736;26;20242;-82
2024/04/18 00:29:16;;;;;;;19.45;17.75;;;;;;;;;;5374099;26;20506;-82
2024/04/18 00:31:42;;;;;;;21.90;17.97;;;;;;;;;;5368680;26;20239;-82
2024/04/18 00:34:08;;;;;;;20.33;18.10;;;;;;;;;;5359433;26;20475;-82
2024/04/18 00:36:34;;;;;;;20.90;18.70;;;;;;;;;;5365664;26;20507;-82
2024/04/18 00:39:00;;;;;;;19.20;17.33;;;;;;;;;;5373668;26;20555;-82
2024/04/18 00:41:26;;;;;;;20.83;18.63;;;;;;;;;;5381883;26;20518;-82
2024/04/18 00:43:52;;;;;;;19.57;17.57;;;;;;;;;;5378064;26;20576;-82
2024/04/18 00:46:19;;;;;;;20.20;18.10;;;;;;;;;;5378852;26;20498;-82
2024/04/18 00:48:45;;;;;;;20.55;18.05;;;;;;;;;;5379424;26;20454;-82
2024/04/18 00:51:11;;;;;;;21.00;19.00;;;;;;;;;;5366758;26;20237;-82
2024/04/18 00:53:38;;;;;;;21.13;18.93;;;;;;;;;;5358423;26;20286;-82
2024/04/18 00:56:04;;;;;;;21.83;18.45;;;;;;;;;;5371971;26;20505;-82
2024/04/18 00:58:30;;;;;;;20.65;18.52;;;;;;;;;;5377872;26;20293;-82
2024/04/18 01:00:56;;;;;;;22.92;20.50;;;;;;;;;;5361855;26;20287;-82
2024/04/18 01:03:22;;;;;;;23.43;19.67;;;;;;;;;;5378305;26;20246;-82
2024/04/18 01:05:48;;;;;;;23.70;19.43;;;;;;;;;;5366376;26;21001;-82
2024/04/18 01:08:14;;;;;;;21.70;19.35;;;;;;;;;;5365152;26;20471;-82
2024/04/18 01:10:40;;;;;;;22.20;19.80;;;;;;;;;;5374665;26;20244;-83
2024/04/18 01:13:06;;;;;;;20.95;18.85;;;;;;;;;;5378519;26;20459;-82
2024/04/18 01:15:32;;;;;;;21.73;19.52;;;;;;;;;;5370545;26;20271;-83
2024/04/18 01:17:58;;;;;;;20.70;18.55;;;;;;;;;;5366374;26;20289;-83
2024/04/18 01:20:25;;;;;;;23.73;20.73;;;;;;;;;;5372855;26;20232;-83
2024/04/18 01:22:51;;;;;;;21.85;19.58;;;;;;;;;;5373935;26;20477;-82
2024/04/18 01:25:17;;;;;;;23.05;20.38;;;;;;;;;;5372587;26;20241;-83
2024/04/18 01:27:43;;;;;;;22.73;20.20;;;;;;;;;;5374262;26;20236;-83
2024/04/18 01:30:09;;;;;;;24.40;19.97;;;;;;;;;;5379002;26;20239;-82
2024/04/18 01:32:36;;;;;;;21.48;19.35;;;;;;;;;;5380538;26;20461;-83
2024/04/18 01:35:02;;;;;;;22.20;19.60;;;;;;;;;;5366056;26;20250;-83
2024/04/18 01:37:28;;;;;;;24.15;20.48;;;;;;;;;;5366795;26;20240;-83
2024/04/18 01:39:54;;;;;;;24.20;21.27;;;;;;;;;;5373074;26;20675;-83
2024/04/18 01:42:20;;;;;;;29.17;20.63;;;;;;;;;;5380018;26;20933;-83
2024/04/18 01:44:46;;;;;;;26.97;20.77;;;;;;;;;;5371110;26;20466;-83
2024/04/18 01:47:12;;;;;;;27.58;21.55;;;;;;;;;;5381355;26;20456;-82
2024/04/18 01:49:39;;;;;;;28.67;21.27;;;;;;;;;;5381115;26;20719;-83
2024/04/18 01:52:07;;;;;;;26.88;22.13;;;;;;;;;;5374600;26;20368;-83
2024/04/18 01:54:34;;;;;;;27.40;22.98;;;;;;;;;;5381962;26;20234;-83
2024/04/18 01:57:03;;;;;;;28.15;23.10;;;;;;;;;;5368386;26;20244;-83
2024/04/18 01:59:29;;;;;;;29.00;21.50;;;;;;;;;;5379739;26;20248;-83
2024/04/18 02:01:55;;;;;;;27.33;23.30;;;;;;;;;;5368096;26;20363;-83
2024/04/18 02:04:21;;;;;;;31.55;25.23;;;;;;;;;;5367282;26;20460;-83
2024/04/18 02:06:49;;;;;;;33.17;23.60;;;;;;;;;;5373222;26;20232;-83
2024/04/18 02:09:16;;;;;;;31.02;24.75;;;;;;;;;;5367131;26;20465;-83
2024/04/18 02:11:42;;;;;;;31.90;25.08;;;;;;;;;;5367372;26;20238;-83
2024/04/18 02:14:08;;;;;;;30.80;26.70;;;;;;;;;;5378245;26;20243;-83
2024/04/18 02:16:34;;;;;;;36.37;27.63;;;;;;;;;;5368403;26;20244;-83
2024/04/18 02:19:00;;;;;;;33.53;25.87;;;;;;;;;;5377946;26;20512;-83
2024/04/18 02:21:26;;;;;;;33.50;26.57;;;;;;;;;;5376585;26;20483;-84
2024/04/18 02:23:52;;;;;;;33.73;27.00;;;;;;;;;;5376775;26;20520;-83
2024/04/18 02:26:18;;;;;;;33.28;25.90;;;;;;;;;;5374604;26;21010;-83
2024/04/18 02:28:44;;;;;;;38.83;28.10;;;;;;;;;;5379751;26;20235;-83
2024/04/18 02:31:10;;;;;;;38.60;28.77;;;;;;;;;;5368162;26;20773;-83
2024/04/18 02:33:36;;;;;;;37.58;27.70;;;;;;;;;;5373404;26;20462;-83
2024/04/18 02:36:02;;;;;;;36.40;27.13;;;;;;;;;;5378438;26;20574;-83
2024/04/18 02:38:29;;;;;;;35.93;26.23;;;;;;;;;;5375416;26;20454;-83
2024/04/18 02:41:04;;;;;;;38.38;25.27;;;;;;;;;;5381951;26;20466;-83
2024/04/18 02:43:30;;;;;;;39.95;28.40;;;;;;;;;;5369291;26;20589;-83
2024/04/18 02:45:56;;;;;;;43.58;27.95;;;;;;;;;;5364128;26;20385;-83
2024/04/18 02:48:22;;;;;;;36.22;27.23;;;;;;;;;;5372283;26;20245;-83
2024/04/18 02:50:48;;;;;;;34.53;27.58;;;;;;;;;;5375988;26;20303;-84
2024/04/18 02:53:14;;;;;;;40.73;30.53;;;;;;;;;;5377108;26;20240;-84
2024/04/18 02:55:41;;;;;;;37.50;27.43;;;;;;;;;;5375188;26;20466;-84
2024/04/18 02:58:06;;;;;;;31.30;26.00;;;;;;;;;;5376881;26;20503;-84
2024/04/18 03:00:35;;;;;;;30.70;25.50;;;;;;;;;;5379202;26;20259;-83
2024/04/18 03:03:01;;;;;;;32.85;25.90;;;;;;;;;;5368337;26;20527;-83
2024/04/18 03:05:27;;;;;;;32.55;26.48;;;;;;;;;;5371852;26;20247;-83
2024/04/18 03:07:56;;;;;;;42.57;25.80;;;;;;;;;;5376065;26;20239;-83
2024/04/18 03:10:22;;;;;;;39.17;26.83;;;;;;;;;;5372161;26;20469;-83
2024/04/18 03:12:48;;;;;;;43.33;27.00;;;;;;;;;;5375489;26;20243;-83
2024/04/18 03:15:14;;;;;;;41.60;27.05;;;;;;;;;;5379153;26;20290;-83
2024/04/18 03:17:40;;;;;;;44.08;27.85;;;;;;;;;;5369033;26;20247;-83
2024/04/18 03:20:07;;;;;;;51.37;28.63;;;;;;;;;;5366871;26;20275;-84
2024/04/18 03:22:35;;;;;;;48.33;30.70;;;;;;;;;;5368857;26;20479;-83
2024/04/18 03:25:01;;;;;;;40.85;28.65;;;;;;;;;;5374514;26;20608;-83
2024/04/18 03:27:30;;;;;;;46.83;29.17;;;;;;;;;;5373181;26;20236;-83
2024/04/18 03:29:56;;;;;;;42.75;28.13;;;;;;;;;;5370598;26;20274;-83
2024/04/18 03:32:23;;;;;;;47.38;28.80;;;;;;;;;;5380828;26;20244;-84
2024/04/18 03:34:52;;;;;;;55.72;31.30;;;;;;;;;;5380037;26;20723;-84
2024/04/18 03:37:18;;;;;;;53.47;31.35;;;;;;;;;;5374693;26;20240;-84
2024/04/18 03:39:44;;;;;;;66.95;33.15;;;;;;;;;;5370227;26;20421;-83
2024/04/18 03:42:10;;;;;;;59.53;34.97;;;;;;;;;;5373701;26;20569;-83
2024/04/18 03:44:36;;;;;;;61.97;32.17;;;;;;;;;;5374295;26;20233;-84
2024/04/18 03:47:03;;;;;;;66.45;33.75;;;;;;;;;;5362044;26;21064;-84
2024/04/18 03:49:29;;;;;;;57.88;32.35;;;;;;;;;;5367452;26;20228;-83
2024/04/18 03:51:55;;;;;;;61.78;33.75;;;;;;;;;;5368222;26;20314;-83
2024/04/18 03:54:21;;;;;;;57.40;34.83;;;;;;;;;;5371163;26;20287;-84
2024/04/18 03:56:48;;;;;;;53.85;32.75;;;;;;;;;;5376657;26;20294;-84
2024/04/18 03:59:14;;;;;;;54.63;32.63;;;;;;;;;;5377335;26;20270;-84
2024/04/18 04:01:40;;;;;;;57.40;33.00;;;;;;;;;;5376406;26;20311;-84
2024/04/18 04:04:06;;;;;;;60.60;37.17;;;;;;;;;;5366347;26;20233;-84
2024/04/18 04:06:32;;;;;;;56.67;33.40;;;;;;;;;;5365908;26;20233;-84
2024/04/18 04:08:58;;;;;;;48.85;31.33;;;;;;;;;;5373977;26;20270;-84
2024/04/18 04:11:25;;;;;;;51.50;31.48;;;;;;;;;;5372191;26;20349;-84
2024/04/18 04:13:51;;;;;;;48.55;32.85;;;;;;;;;;5366475;26;20297;-84
2024/04/18 04:16:19;;;;;;;54.20;31.85;;;;;;;;;;5367443;26;20236;-84
2024/04/18 04:18:49;;;;;;;48.22;30.95;;;;;;;;;;5374774;26;20288;-84
2024/04/18 04:21:15;;;;;;;46.90;31.05;;;;;;;;;;5375410;26;20285;-84
2024/04/18 04:23:41;;;;;;;41.70;28.90;;;;;;;;;;5374661;26;20543;-84
2024/04/18 04:26:07;;;;;;;43.03;27.97;;;;;;;;;;5369453;26;20470;-84
2024/04/18 04:28:33;;;;;;;47.50;29.67;;;;;;;;;;5375717;26;20462;-84
2024/04/18 04:30:59;;;;;;;40.57;28.57;;;;;;;;;;5371106;26;20458;-84
2024/04/18 04:33:31;;;;;;;44.30;29.50;;;;;;;;;;5376985;26;20867;-84
2024/04/18 04:35:57;;;;;;;43.22;28.73;;;;;;;;;;5359947;26;20474;-84
2024/04/18 04:38:23;;;;;;;41.55;29.70;;;;;;;;;;5358211;26;20282;-84
2024/04/18 04:40:49;;;;;;;39.28;29.52;;;;;;;;;;5367268;26;20294;-84
2024/04/18 04:43:15;;;;;;;39.55;28.70;;;;;;;;;;5371427;26;20243;-84
2024/04/18 04:45:41;;;;;;;42.10;28.60;;;;;;;;;;5380278;26;21119;-84
2024/04/18 04:48:08;;;;;;;42.22;31.08;;;;;;;;;;5368928;26;20795;-84
2024/04/18 04:50:37;;;;;;;45.85;31.15;;;;;;;;;;5371305;26;20258;-83
2024/04/18 04:53:03;;;;;;;45.40;30.02;;;;;;;;;;5372193;26;20333;-83
2024/04/18 04:55:29;;;;;;;43.97;29.00;;;;;;;;;;5364310;26;20290;-84
2024/04/18 04:57:55;;;;;;;52.47;33.53;;;;;;;;;;5373997;26;20248;-83
2024/04/18 05:00:21;;;;;;;44.43;32.50;;;;;;;;;;5371286;26;20514;-83
2024/04/18 05:02:47;;;;;;;49.15;32.53;;;;;;;;;;5369051;26;21116;-83
2024/04/18 05:05:13;;;;;;;50.27;34.87;;;;;;;;;;5374064;26;20278;-83
2024/04/18 05:07:39;;;;;;;43.72;34.28;;;;;;;;;;5381656;26;20466;-83
2024/04/18 05:10:06;;;;;;;46.63;31.90;;;;;;;;;;5364415;26;20402;-84
2024/04/18 05:12:32;;;;;;;44.28;33.03;;;;;;;;;;5367035;26;20482;-83
2024/04/18 05:14:58;;;;;;;46.43;34.47;;;;;;;;;;5379101;26;20232;-83
2024/04/18 05:17:24;;;;;;;47.35;35.50;;;;;;;;;;5367572;26;20551;-83
2024/04/18 05:19:50;;;;;;;47.35;35.60;;;;;;;;;;5375648;26;20248;-83
2024/04/18 05:22:16;;;;;;;53.80;35.30;;;;;;;;;;5374616;26;20291;-83
2024/04/18 05:24:42;;;;;;;51.70;34.60;;;;;;;;;;5371191;26;20517;-83
2024/04/18 05:27:08;;;;;;;44.03;31.53;;;;;;;;;;5376312;26;20514;-83
2024/04/18 05:32:19;;;;;;;40.83;31.48;;;;;;;;;;5366040;26;20566;-83
2024/04/18 05:34:45;;;;;;;39.63;32.23;;;;;;;;;;5376641;26;20251;-83
2024/04/18 05:37:11;;;;;;;39.80;31.75;;;;;;;;;;5367211;26;20452;-84
2024/04/18 05:39:37;;;;;;;39.33;32.47;;;;;;;;;;5361398;26;20237;-83
2024/04/18 05:42:03;;;;;;;42.87;32.70;;;;;;;;;;5369458;26;20469;-83
2024/04/18 05:44:30;;;;;;;49.03;32.90;;;;;;;;;;5379583;26;20518;-83
2024/04/18 05:46:55;;;;;;;46.25;36.55;;;;;;;;;;5367626;26;21047;-83
2024/04/18 05:49:22;;;;;;;44.00;36.63;;;;;;;;;;5372418;26;20240;-83
2024/04/18 05:51:49;;;;;;;55.10;38.97;;;;;;;;;;5383486;26;20582;-83
2024/04/18 05:54:15;;;;;;;55.45;37.92;;;;;;;;;;5374526;26;20244;-82
2024/04/18 05:56:42;;;;;;;47.30;38.10;;;;;;;;;;5370470;26;20274;-82
2024/04/18 05:59:08;;;;;;;50.03;38.28;;;;;;;;;;5370567;26;20771;-83
2024/04/18 06:01:33;;;;;;;45.07;35.60;;;;;;;;;;5367728;26;20229;-83
2024/04/18 06:04:00;;;;;;;45.33;33.03;;;;;;;;;;5369845;26;20470;-82
2024/04/18 06:06:26;;;;;;;44.60;35.35;;;;;;;;;;5383729;26;20800;-82
2024/04/18 06:08:54;;;;;;;41.33;32.83;;;;;;;;;;5382617;26;20305;-82
2024/04/18 06:11:31;;;;;;;42.05;33.05;;;;;;;;;;5383347;26;20468;-82
2024/04/18 06:13:57;;;;;;;40.55;33.17;;;;;;;;;;5374535;26;20295;-82
2024/04/18 06:16:23;;;;;;;38.50;30.27;;;;;;;;;;5379118;26;20246;-82
2024/04/18 06:18:49;;;;;;;45.50;34.33;;;;;;;;;;5375302;26;20280;-82
2024/04/18 06:21:15;;;;;;;39.78;33.85;;;;;;;;;;5371292;26;20467;-82
2024/04/18 06:23:41;;;;;;;38.08;31.75;;;;;;;;;;5370878;26;20325;-82
2024/04/18 06:26:07;;;;;;;37.50;29.58;;;;;;;;;;5390811;26;20276;-82
2024/04/18 06:28:33;;;;;;;37.58;29.00;;;;;;;;;;5378847;26;20329;-82
2024/04/18 06:30:59;;;;;;;40.72;28.42;;;;;;;;;;5373311;26;20306;-82
2024/04/18 06:33:29;;;;;;;30.13;25.67;;;;;;;;;;5377036;26;20278;-82
2024/04/18 06:35:55;;;;;;;32.10;26.77;;;;;;;;;;5375548;26;20481;-82
2024/04/18 06:38:21;;;;;;;28.77;24.17;;;;;;;;;;5378085;26;20250;-82
2024/04/18 06:40:47;;;;;;;26.97;24.17;;;;;;;;;;5373484;26;20565;-81
2024/04/18 06:43:13;;;;;;;27.90;23.95;;;;;;;;;;5380731;26;20456;-81
2024/04/18 06:45:39;;;;;;;26.90;24.20;;;;;;;;;;5384508;26;20282;-81
2024/04/18 06:48:07;;;;;;;27.00;24.33;;;;;;;;;;5383483;26;20466;-82
2024/04/18 06:50:33;;;;;;;30.45;24.88;;;;;;;;;;5372614;26;20583;-81
2024/04/18 06:52:59;;;;;;;26.85;24.33;;;;;;;;;;5379168;26;20596;-81
2024/04/18 06:55:25;;;;;;;26.30;22.52;;;;;;;;;;5365096;26;20330;-81
2024/04/18 06:57:51;;;;;;;22.50;20.33;;;;;;;;;;5383141;26;20275;-81
2024/04/18 07:00:17;;;;;;;21.87;19.73;;;;;;;;;;5379190;26;20236;-79
2024/04/18 07:02:44;;;;;;;24.30;21.63;;;;;;;;;;5375685;26;20587;-80
2024/04/18 07:05:10;;;;;;;22.42;20.13;;;;;;;;;;5376843;26;20514;-80
2024/04/18 07:07:36;;;;;;;23.50;21.27;;;;;;;;;;5397072;26;20708;-80
2024/04/18 07:10:02;;;;;;;21.00;19.10;;;;;;;;;;5379888;26;20270;-80
2024/04/18 07:12:28;;;;;;;19.73;17.93;;;;;;;;;;5379357;26;20239;-80
2024/04/18 07:14:54;;;;;;;20.40;18.58;;;;;;;;;;5375032;26;20803;-79
2024/04/18 07:17:20;;;;;;;18.05;16.27;;;;;;;;;;5363988;26;20241;-79
2024/04/18 07:19:46;;;;;;;19.53;17.60;;;;;;;;;;5363894;26;20290;-79
2024/04/18 07:22:12;;;;;;;19.57;17.70;;;;;;;;;;5371751;26;20479;-79
2024/04/18 07:24:38;;;;;;;16.50;15.17;;;;;;;;;;5370768;26;20462;-79
2024/04/18 07:27:04;;;;;;;17.30;15.55;;;;;;;;;;5374986;26;20463;-79
2024/04/18 07:29:30;;;;;;;15.85;14.35;;;;;;;;;;5375631;26;20627;-80
2024/04/18 07:31:56;;;;;;;16.53;14.90;;;;;;;;;;5383615;26;20298;-78
2024/04/18 07:34:22;;;;;;;16.20;14.70;;;;;;;;;;5375213;26;20515;-78
2024/04/18 07:36:48;;;;;;;16.20;14.63;;;;;;;;;;5374408;26;21850;-80
2024/04/18 07:39:14;;;;;;;14.00;12.75;;;;;;;;;;5366277;26;20462;-79
2024/04/18 07:41:40;;;;;;;15.88;14.68;;;;;;;;;;5371079;26;20259;-79
2024/04/18 07:44:08;;;;;;;15.10;13.73;;;;;;;;;;5372156;26;20283;-80
2024/04/18 07:46:34;;;;;;;13.13;12.00;;;;;;;;;;5364238;26;20479;-79
2024/04/18 07:49:01;;;;;;;13.77;12.77;;;;;;;;;;5367686;26;20247;-80
2024/04/18 07:51:28;;;;;;;14.15;12.77;;;;;;;;;;5367720;26;20341;-80
2024/04/18 07:53:53;;;;;;;14.18;12.55;;;;;;;;;;5373188;26;20310;-80
2024/04/18 07:56:19;;;;;;;14.60;13.20;;;;;;;;;;5358905;26;20228;-80
2024/04/18 07:58:45;;;;;;;15.37;13.77;;;;;;;;;;5379954;26;20458;-80
2024/04/18 08:01:11;;;;;;;13.43;12.45;;;;;;;;;;5369464;26;20651;-80
2024/04/18 08:03:40;;;;;;;12.83;11.30;;;;;;;;;;5373124;26;20243;-80
2024/04/18 08:06:06;;;;;;;13.27;11.88;;;;;;;;;;5359683;26;20467;-81
2024/04/18 08:08:32;;;;;;;14.53;13.13;;;;;;;;;;5361298;26;20295;-80
2024/04/18 08:10:58;;;;;;;14.67;13.47;;;;;;;;;;5376449;26;20461;-80
2024/04/18 08:13:24;;;;;;;13.70;12.30;;;;;;;;;;5371801;26;20506;-80
2024/04/18 08:15:51;;;;;;;13.20;12.23;;;;;;;;;;5383677;26;20456;-80
2024/04/18 08:18:18;;;;;;;17.95;14.77;;;;;;;;;;5374078;26;20462;-81
2024/04/18 08:20:44;;;;;;;12.43;11.43;;;;;;;;;;5372480;26;20339;-80
2024/04/18 08:23:10;;;;;;;11.10;10.30;;;;;;;;;;5375611;26;20312;-80
2024/04/18 08:25:36;;;;;;;11.93;11.02;;;;;;;;;;5371405;26;20712;-81
2024/04/18 08:28:03;;;;;;;11.67;10.57;;;;;;;;;;5388177;26;20239;-80
2024/04/18 08:30:29;;;;;;;11.90;10.10;;;;;;;;;;5383490;26;20535;-81
2024/04/18 08:32:55;;;;;;;15.00;9.97;;;;;;;;;;5365528;26;20233;-81
2024/04/18 08:35:21;;;;;;;8.75;8.00;;;;;;;;;;5353621;26;20455;-82
2024/04/18 08:37:48;;;;;;;8.17;7.67;;;;;;;;;;5532885;21;20295;-81
2024/04/18 08:40:14;;;;;;;8.82;8.15;;;;;;;;;;5427933;26;20474;-80
2024/04/18 08:42:40;;;;;;;8.50;7.53;;;;;;;;;;5489366;26;20562;-80
2024/04/18 08:45:08;;;;;;;11.50;7.60;;;;;;;;;;5489303;26;20458;-80
2024/04/18 08:47:34;;;;;;;8.30;7.20;;;;;;;;;;5495942;26;20462;-81
2024/04/18 08:50:00;;;;;;;7.90;7.30;;;;;;;;;;5492211;26;20462;-81
2024/04/18 08:52:31;;;;;;;7.87;7.10;;;;;;;;;;5490018;26;20503;-81
2024/04/18 08:54:57;;;;;;;11.20;7.00;;;;;;;;;;5478301;26;20514;-80
2024/04/18 08:57:24;;;;;;;9.40;7.10;;;;;;;;;;5479005;26;20463;-80
2024/04/18 08:59:56;;;;;;;7.13;6.47;;;;;;;;;;5486065;26;20514;-82
2024/04/18 09:02:22;;;;;;;9.53;6.83;;;;;;;;;;5490243;26;20917;-81
2024/04/18 09:04:49;;;;;;;7.40;6.90;;;;;;;;;;5477765;26;20575;-81
2024/04/18 09:07:15;;;;;;;13.73;8.10;;;;;;;;;;5483981;26;20462;-80
2024/04/18 09:09:41;;;;;;;7.93;7.23;;;;;;;;;;5487363;26;20469;-80
2024/04/18 09:12:07;;;;;;;6.93;6.53;;;;;;;;;;5483192;26;20458;-82
2024/04/18 09:14:33;;;;;;;7.33;6.70;;;;;;;;;;5490726;26;20477;-80
2024/04/18 09:16:59;;;;;;;6.33;5.93;;;;;;;;;;5489759;26;20770;-81
2024/04/18 09:19:25;;;;;;;6.93;6.23;;;;;;;;;;5484289;26;20453;-85
2024/04/18 09:21:51;;;;;;;8.03;6.10;;;;;;;;;;5488943;26;20547;-81
2024/04/18 09:24:17;;;;;;;5.57;5.10;;;;;;;;;;5487850;26;20465;-81
2024/04/18 09:26:43;;;;;;;6.37;5.77;;;;;;;;;;5479971;26;20862;-82
2024/04/18 09:29:09;;;;;;;6.80;6.30;;;;;;;;;;5487112;26;20470;-81
2024/04/18 09:31:36;;;;;;;7.00;6.40;;;;;;;;;;5473950;26;20477;-82
2024/04/18 09:34:02;;;;;;;9.13;6.87;;;;;;;;;;5476661;26;20533;-82
2024/04/18 09:36:28;;;;;;;6.47;5.80;;;;;;;;;;5481382;26;20465;-83
2024/04/18 09:38:55;;;;;;;6.20;5.70;;;;;;;;;;5487464;26;20502;-82
2024/04/18 09:41:27;;;;;;;7.70;6.23;;;;;;;;;;5490076;26;20548;-82
2024/04/18 09:43:55;;;;;;;8.43;6.20;;;;;;;;;;5484520;26;20783;-83
2024/04/18 09:46:22;;;;;;;6.50;6.07;;;;;;;;;;5476672;26;21056;-82
2024/04/18 09:48:48;;;;;;;7.20;6.70;;;;;;;;;;5481695;26;20519;-81
2024/04/18 09:51:15;;;;;;;6.53;5.90;;;;;;;;;;5491449;26;20461;-81
2024/04/18 09:53:41;;;;;;;10.97;6.40;;;;;;;;;;5490916;26;20551;-81
2024/04/18 09:56:07;;;;;;;7.17;6.23;;;;;;;;;;5488107;26;20501;-81
2024/04/18 09:58:34;;;;;;;6.20;5.63;;;;;;;;;;5491490;26;20437;-82
2024/04/18 10:01:00;;;;;;;6.00;5.60;;;;;;;;;;5459411;26;20465;-81
2024/04/18 10:03:27;;;;;;;9.73;5.47;;;;;;;;;;5491871;26;20461;-82
2024/04/18 10:05:55;;;;;;;6.40;5.70;;;;;;;;;;5488687;26;20529;-81
2024/04/18 10:08:23;;;;;;;7.23;5.43;;;;;;;;;;5486893;26;20500;-82
2024/04/18 10:10:49;;;;;;;5.60;5.20;;;;;;;;;;5486311;26;20948;-84
2024/04/18 10:13:15;;;;;;;6.40;5.80;;;;;;;;;;5494701;26;20465;-82
2024/04/18 10:15:41;;;;;;;8.00;7.40;;;;;;;;;;5483639;26;20754;-81
2024/04/18 10:18:16;;;;;;;7.17;6.77;;;;;;;;;;5482569;26;20478;-81
2024/04/18 10:20:43;;;;;;;6.60;6.10;;;;;;;;;;5485027;26;20841;-83
2024/04/18 10:23:16;;;;;;;5.97;5.60;;;;;;;;;;5480301;26;20461;-82
2024/04/18 10:25:45;;;;;;;6.27;5.57;;;;;;;;;;5486276;26;20465;-82
2024/04/18 10:28:22;;;;;;;5.10;4.70;;;;;;;;;;5472132;26;20470;-82
2024/04/18 10:30:48;;;;;;;5.70;5.17;;;;;;;;;;5488886;26;20523;-84
2024/04/18 10:33:14;;;;;;;6.10;5.50;;;;;;;;;;5491584;26;20523;-82
2024/04/18 10:35:40;;;;;;;7.20;5.40;;;;;;;;;;5490207;26;20850;-82
2024/04/18 10:38:06;;;;;;;5.70;5.23;;;;;;;;;;5488926;26;20973;-81
2024/04/18 10:40:33;;;;;;;5.50;5.00;;;;;;;;;;5490981;26;20534;-85
2024/04/18 10:43:15;;;;;;;6.10;5.67;;;;;;;;;;5476719;26;20447;-83
2024/04/18 10:45:44;;;;;;;5.90;5.40;;;;;;;;;;5478928;26;20508;-80
2024/04/18 10:48:10;;;;;;;6.40;5.70;;;;;;;;;;5491497;26;20524;-80
2024/04/18 10:50:36;;;;;;;5.73;5.33;;;;;;;;;;5489029;26;20482;-81
2024/04/18 10:53:03;;;;;;;6.27;5.87;;;;;;;;;;5482591;26;20982;-80
2024/04/18 10:55:29;;;;;;;5.73;5.20;;;;;;;;;;5485783;26;20438;-81
2024/04/18 10:57:55;;;;;;;6.03;5.53;;;;;;;;;;5483229;26;20471;-80
2024/04/18 11:00:21;;;;;;;6.00;5.50;;;;;;;;;;5476133;26;21039;-81
2024/04/18 11:02:47;;;;;;;5.60;5.20;;;;;;;;;;5482194;26;20435;-82
2024/04/18 11:05:14;;;;;;;5.40;5.00;;;;;;;;;;5488524;26;20944;-82
2024/04/18 11:07:40;;;;;;;5.03;4.80;;;;;;;;;;5482247;26;20785;-82
2024/04/18 11:10:06;;;;;;;4.90;4.30;;;;;;;;;;5489946;26;20465;-81
2024/04/18 11:12:32;;;;;;;5.30;4.90;;;;;;;;;;5474567;26;20474;-82
2024/04/18 11:14:58;;;;;;;5.27;4.80;;;;;;;;;;5473583;26;20897;-82
2024/04/18 11:17:24;;;;;;;6.33;5.87;;;;;;;;;;5484031;26;20438;-82
2024/04/18 11:19:51;;;;;;;5.77;5.20;;;;;;;;;;5484431;26;21034;-81
2024/04/18 11:22:17;;;;;;;5.47;5.10;;;;;;;;;;5479418;26;20541;-81
2024/04/18 11:24:43;;;;;;;5.73;5.30;;;;;;;;;;5490015;26;21045;-88
2024/04/18 11:27:09;;;;;;;4.97;4.77;;;;;;;;;;5490251;26;20454;-83
2024/04/18 11:29:36;;;;;;;5.40;5.00;;;;;;;;;;5486438;26;20595;-86
2024/04/18 11:32:08;;;;;;;5.57;5.27;;;;;;;;;;5475289;26;20458;-86
2024/04/18 11:34:35;;;;;;;5.60;5.30;;;;;;;;;;5490513;26;20449;-86
2024/04/18 11:37:03;;;;;;;4.87;4.57;;;;;;;;;;5486317;26;20805;-86
2024/04/18 11:39:29;;;;;;;27.67;6.20;;;;;;;;;;5456476;26;20450;-87
2024/04/18 11:41:55;;;;;;;4.10;3.90;;;;;;;;;;5478241;26;20469;-86
2024/04/18 11:44:21;;;;;;;4.60;4.30;;;;;;;;;;5504616;26;20441;-86
2024/04/18 11:46:48;;;;;;;5.73;5.23;;;;;;;;;;5441636;26;20808;-85
2024/04/18 11:49:14;;;;;;;6.03;5.50;;;;;;;;;;5490538;26;20462;-85
2024/04/18 11:51:40;;;;;;;5.60;5.30;;;;;;;;;;5485843;26;20599;-86
2024/04/18 11:54:06;;;;;;;6.00;5.70;;;;;;;;;;5483827;26;20481;-84
2024/04/18 11:56:32;;;;;;;5.63;5.33;;;;;;;;;;5494674;26;20512;-84
2024/04/18 11:58:59;;;;;;;4.23;4.00;;;;;;;;;;5457779;26;20470;-87
2024/04/18 12:01:25;;;;;;;4.20;3.90;;;;;;;;;;5489486;26;20466;-85
2024/04/18 12:03:51;;;;;;;5.33;4.93;;;;;;;;;;5481868;26;20514;-84
2024/04/18 12:06:17;;;;;;;5.53;5.20;;;;;;;;;;5471664;26;20993;-84
2024/04/18 12:08:43;;;;;;;5.13;4.87;;;;;;;;;;5485084;26;20458;-84
2024/04/18 12:11:09;;;;;;;5.30;4.73;;;;;;;;;;5483518;26;20470;-84
2024/04/18 12:13:35;;;;;;;4.53;4.23;;;;;;;;;;5490619;26;20526;-85
2024/04/18 12:16:01;;;;;;;5.60;5.23;;;;;;;;;;5484288;26;20515;-85
2024/04/18 12:18:27;;;;;;;5.90;5.70;;;;;;;;;;5460110;26;20437;-87
2024/04/18 12:20:53;;;;;;;5.60;5.30;;;;;;;;;;5442742;26;20466;-85
2024/04/18 12:23:19;;;;;;;6.00;5.43;;;;;;;;;;5503972;26;20461;-86
2024/04/18 12:25:45;;;;;;;5.47;5.00;;;;;;;;;;5478771;26;20496;-88
2024/04/18 12:28:11;;;;;;;5.70;5.40;;;;;;;;;;5482028;26;20448;-84
2024/04/18 12:30:38;;;;;;;5.83;5.43;;;;;;;;;;5456962;26;20525;-86
2024/04/18 12:33:04;;;;;;;5.77;5.47;;;;;;;;;;5489769;26;20468;-85
2024/04/18 12:35:30;;;;;;;4.93;4.73;;;;;;;;;;5487642;26;20478;-85
2024/04/18 12:37:57;;;;;;;5.20;5.00;;;;;;;;;;5477890;26;20549;-85
2024/04/18 12:40:23;;;;;;;5.83;5.50;;;;;;;;;;5456015;26;20462;-86
2024/04/18 12:42:49;;;;;;;6.10;5.73;;;;;;;;;;5479370;26;20802;-87
2024/04/18 12:45:15;;;;;;;6.87;6.27;;;;;;;;;;5479417;26;20467;-85
2024/04/18 12:47:41;;;;;;;6.10;5.70;;;;;;;;;;5488392;26;20552;-90
2024/04/18 12:50:07;;;;;;;4.80;4.40;;;;;;;;;;5489014;26;20460;-83
2024/04/18 12:52:33;;;;;;;4.87;4.57;;;;;;;;;;5501578;26;20528;-90
2024/04/18 12:54:59;;;;;;;4.70;4.50;;;;;;;;;;5501965;26;20466;-84
2024/04/18 12:57:25;;;;;;;5.13;4.73;;;;;;;;;;5477428;26;20974;-85
2024/04/18 12:59:51;;;;;;;6.23;5.93;;;;;;;;;;5489910;26;20473;-84
2024/04/18 13:02:17;;;;;;;6.40;5.90;;;;;;;;;;5490576;26;21051;-85
2024/04/18 13:04:43;;;;;;;6.40;6.07;;;;;;;;;;5466695;26;20461;-85
2024/04/18 13:07:10;;;;;;;6.30;5.70;;;;;;;;;;5486413;26;20533;-85
2024/04/18 13:09:36;;;;;;;6.53;6.00;;;;;;;;;;5486788;26;20470;-87
2024/04/18 13:12:02;;;;;;;6.37;6.07;;;;;;;;;;5483112;26;20579;-82
2024/04/18 13:14:28;;;;;;;6.47;6.10;;;;;;;;;;5482712;26;20588;-82
2024/04/18 13:16:54;;;;;;;5.57;5.07;;;;;;;;;;5447618;26;20910;-81
2024/04/18 13:19:20;;;;;;;5.43;5.07;;;;;;;;;;5485745;26;20457;-80
2024/04/18 13:21:46;;;;;;;6.10;5.70;;;;;;;;;;5487621;26;20900;-81
2024/04/18 13:24:13;;;;;;;6.93;5.20;;;;;;;;;;5486259;26;20518;-81
2024/04/18 13:26:39;;;;;;;5.20;4.93;;;;;;;;;;5480739;26;20450;-81
2024/04/18 13:29:05;;;;;;;6.00;5.50;;;;;;;;;;5492068;26;20835;-81
2024/04/18 13:31:31;;;;;;;5.97;5.60;;;;;;;;;;5490887;26;20461;-81
2024/04/18 13:33:57;;;;;;;5.73;5.33;;;;;;;;;;5473753;26;20465;-80
2024/04/18 13:36:23;;;;;;;4.60;4.40;;;;;;;;;;5478289;26;20517;-81
2024/04/18 13:38:49;;;;;;;4.90;4.60;;;;;;;;;;5486226;26;20588;-82
2024/04/18 13:41:15;;;;;;;4.90;4.60;;;;;;;;;;5480283;26;20808;-82
2024/04/18 13:43:41;;;;;;;6.20;5.70;;;;;;;;;;5490707;26;21012;-81
2024/04/18 13:46:07;;;;;;;6.70;6.30;;;;;;;;;;5460112;26;20546;-82
2024/04/18 13:48:33;;;;;;;6.50;6.10;;;;;;;;;;5490781;26;20453;-80
2024/04/18 13:51:00;;;;;;;6.53;6.23;;;;;;;;;;5478547;26;20457;-84
2024/04/18 13:53:26;;;;;;;5.97;5.68;;;;;;;;;;5490870;26;20526;-82
2024/04/18 13:55:52;;;;;;;6.97;6.37;;;;;;;;;;5487286;26;20236;-83
2024/04/18 13:58:20;;;;;;;6.10;5.70;;;;;;;;;;5458388;26;20489;-82
2024/04/18 14:00:46;;;;;;;6.10;5.80;;;;;;;;;;5482315;26;20462;-81
2024/04/18 14:03:12;;;;;;;5.70;5.40;;;;;;;;;;5482837;26;20500;-81
2024/04/18 14:05:37;;;;;;;6.67;6.27;;;;;;;;;;5488987;26;20461;-82
2024/04/18 14:08:04;;;;;;;6.57;6.07;;;;;;;;;;5443275;26;20814;-82
2024/04/18 14:10:30;;;;;;;6.23;5.93;;;;;;;;;;5489052;26;20459;-82
2024/04/18 14:12:56;;;;;;;6.10;5.70;;;;;;;;;;5449537;26;20844;-82
2024/04/18 14:15:35;;;;;;;5.40;5.10;;;;;;;;;;5445496;26;20469;-82
2024/04/18 14:20:49;;;;;;;5.27;4.97;;;;;;;;;;5490508;26;20875;-82
2024/04/18 14:23:16;;;;;;;5.70;5.30;;;;;;;;;;5459193;26;20473;-82
2024/04/18 14:25:41;;;;;;;5.60;5.30;;;;;;;;;;5489902;26;20466;-82
2024/04/18 14:28:07;;;;;;;5.77;5.40;;;;;;;;;;5491938;26;20525;-83